Latest METARs, TAFs and NOTAMs for RJGG


---------------------------------------------------------------------------
	(OBSERVATIONS)
RJGG 212300Z 32025KT 9999 FEW020 SCT050 14/08 Q1006 NOSIG=
RJGG 212230Z 33023KT 9999 FEW020 BKN070 14/08 Q1006 NOSIG=
RJGG 212200Z 32027KT 9999 FEW020 SCT050 BKN070 14/08 Q1005 NOSIG=
RJGG 212130Z 33018KT 9999 FEW020 BKN050 14/08 Q1006 NOSIG=
---------------------------------------------------------------------------
	(TERMINAL AREA FORECAST)
AMD RJGG 211835Z 2118/2300 34018KT 9999 FEW010 SCT050 BECMG
    2120/2122 31028KT TEMPO 2200/2212 31030G40KT=
---------------------------------------------------------------------------
	(NOTAMS)


RJGG A1359/19 ACFT STAND TXL D D5 THRU D7-CLSD DUE TO MAINT RMK/EXC
    ACFT WITH PRIOR PERMISSION. 22 MAR 15:30 2019 UNTIL 22 MAR
    21:00 2019. CREATED: 18 MAR 12:27 2019

RJGG A1394/19 TWY A,A1 THRU A10,B,B1 THRU B10,C,C7 THRU C10-CLSD
    DUE TO MAINT RMK/EXC ACFT WITH PRIOR PERMISSION. 23 MAR 16:00
    2019 UNTIL 23 MAR 18:50 2019. CREATED: 19 MAR 11:48 2019

RJGG A1395/19 ACFT STAND TXL D,D5 THRU D7,N-CLSD DUE TO MAINT
    RMK/EXC ACFT WITH PRIOR PERMISSION. 23 MAR 15:30 2019 UNTIL
    23 MAR 21:00 2019. CREATED: 19 MAR 11:48 2019

RJGG A1396/19 ACFT STAND TXL E,E2 THRU E6-CLSD DUE TO MAINT RMK/EXC
    ACFT WITH PRIOR PERMISSION. 23 MAR 16:00 2019 UNTIL 23 MAR
    19:45 2019. CREATED: 19 MAR 11:49 2019

RJGG A1401/19 RWY 18/36-CLSD DUE TO MAINT RMK/EXC ACFT WITH PRIOR
    PERMISSION AT LEAST 1HR BFR. 19 1800/1940 20 1920/2040 21
    1745/1850 23 1600/1850 24 1600/2020, 19 MAR 18:00 2019 UNTIL
    24 MAR 20:20 2019. CREATED: 19 MAR 17:27 2019

RJGG A1406/19 RWY 18/36-CLSD DUE TO MAINT RMK/EXC ACFT WITH PRIOR
    PERMISSION AT LEAST 1HR BFR. 25 1920/2100 26 1745/1940 27
    1920/2040 28 1745/1850, 25 MAR 19:20 2019 UNTIL 28 MAR 18:50
    2019. CREATED: 20 MAR 04:56 2019

RJGG A1410/19 TWY A,A1 THRU A10,B,B1 THRU B10,C,C7 THRU C10-CLSD
    DUE TO MAINT RMK/EXC ACFT WITH PRIOR PERMISSION. 24 MAR 16:00
    2019 UNTIL 24 MAR 20:20 2019. CREATED: 20 MAR 10:48 2019

RJGG A1411/19 ACFT STAND TXL D,D5 THRU D7,N-CLSD DUE TO MAINT
    RMK/EXC ACFT WITH PRIOR PERMISSION. 24 MAR 15:30 2019 UNTIL
    24 MAR 21:00 2019. CREATED: 20 MAR 10:49 2019

RJGG A1412/19 ACFT STAND TXL E,E2 THRU E6-CLSD DUE TO MAINT RMK/EXC
    ACFT WITH PRIOR PERMISSION. 24 MAR 16:00 2019 UNTIL 24 MAR
    21:00 2019. CREATED: 20 MAR 10:50 2019

RJGG A1420/19 TWY A,A1 THRU A10,B,B1 THRU B10,C,C7 THRU C10-CLSD
    DUE TO MAINT RMK/EXC ACFT WITH PRIOR PERMISSION. 25 MAR 19:20
    2019 UNTIL 25 MAR 21:00 2019. CREATED: 21 MAR 13:59 2019

RJGG A1421/19 ACFT STAND TXL D,D5 THRU D7,N-CLSD DUE TO MAINT
    RMK/EXC ACFT WITH PRIOR PERMISSION. 25 MAR 15:30 2019 UNTIL
    25 MAR 21:00 2019. CREATED: 21 MAR 14:00 2019

RJGG A1422/19 ACFT STAND TXL E,E2 THRU E6-CLSD DUE TO MAINT RMK/EXC
    ACFT WITH PRIOR PERMISSION. 25 MAR 16:00 2019 UNTIL 25 MAR
    21:00 2019. CREATED: 21 MAR 14:00 2019

---------------------------------------------------------------------------